Saint Simons Island, GA (31522)

7:15 PM EDT on August 24, 2016 (GMT -0400)
MarshMellow | | Change Station

Elev 10 ft 31.19 °N, 81.39 °W | Updated 5 minutes ago

Partly Cloudy
Partly Cloudy
84.7 °F
Feels Like 88 °F
N
4.7
Wind Variable Wind from West

Today
High -- | Low -- °F
--% Chance of Precip.
Yesterday
High -- | Low -- °F
Precip. -- in
Pressure 30.16 in
Visibility 10.0 miles
Clouds Few 3100 ft
Heat Index 88 °F
Dew Point 69 °F
Humidity 59%
Rainfall 0.00 in
Snow Depth Not available.
6:57 AM 7:57 PM
Waning Gibbous, 52% visible
METAR KSSI 242253Z AUTO 06012KT 10SM FEW031 29/21 A3015 RMK AO2 SLP211 T02890211
Pressure 30.16 in
Visibility 10.0 miles
Clouds Few 3100 ft
Heat Index 88 °F
Dew Point 69 °F
Humidity 59%
Rainfall 0.00 in
Snow Depth Not available.
6:57 AM 7:57 PM
Waning Gibbous, 52% visible
METAR KSSI 242253Z AUTO 06012KT 10SM FEW031 29/21 A3015 RMK AO2 SLP211 T02890211
A tropical disturbance we've monitored since last week, may have a dangerous future in store for the southeast U.S. and Gulf coasts this weekend into next week. The National Weather Service has issued a flash flood watch for Puerto Rico and the U.S. Virgin Islands. Rainfall totals of 2-4 inches (locally higher) are expected through Wednesday night in those areas.

The National Hurricane Center says this system has a medium to high chance of development into a tropical depression or tropical storm over the next 2 to 5 days. A tight consensus of our guidance suggests the disturbance should continue in a general west or west-northwest trajectory the next several days.

10-Day Weather Forecast

Almanac

Astronomy

Aug. 24, 2016 Rise Set
Actual Time
Civil Twilight
Nautical Twilight
Astronomical Twilight
Moon
Length of Visible Light
Length of Day
Tomorrow will be .
, % of the Moon is Illuminated

Today's Extremes

State Highs State Lows

Community

WunderPhotos

Upload Photos

1,934,731 photos uploaded!

WunderBlog® & News

Nearby

Air Quality

  Air Quality AQ Index Pollutant
Not available.

Snow Depth

Station Depth Elevation

Earthquake Activity

City Distance Mag. Time & Date
Minimum magnitude displayed is 2.5.

Coastal Water Temperatures

Place Temperature

Stations

Nearby Weather Stations

Station Location Temp. Windchill Dew Point Humidity Wind Precip. Elev Updated Type
                   

Watches & Warnings

There are currently no watches in effect.